createdAt,value
2019-04-16T00:00:57.830Z,6.40
2019-04-16T00:03:27.430Z,5.60
2019-04-16T00:06:01.644Z,6.90
2019-04-16T00:08:33.372Z,6.10
2019-04-16T00:11:07.660Z,6.57
2019-04-16T00:13:38.938Z,6.97
2019-04-16T00:16:12.642Z,6.70
2019-04-16T00:18:39.943Z,6.80
2019-04-16T00:21:14.457Z,7.03
2019-04-16T00:23:55.504Z,6.67
2019-04-16T00:26:27.483Z,6.50
2019-04-16T00:29:02.067Z,6.80
2019-04-16T00:31:34.427Z,7.40
2019-04-16T00:34:03.170Z,7.72
2019-04-16T00:36:32.796Z,6.95
2019-04-16T00:39:02.325Z,7.17
2019-04-16T00:41:31.820Z,6.65
2019-04-16T00:44:01.836Z,7.00
2019-04-16T00:46:31.478Z,6.50
2019-04-16T00:49:07.916Z,6.72
2019-04-16T00:51:37.543Z,7.35
2019-04-16T00:54:09.871Z,6.80
2019-04-16T00:56:39.690Z,6.37
2019-04-16T00:59:09.206Z,6.17
2019-04-16T01:01:38.856Z,6.53
2019-04-16T01:04:08.526Z,6.50
2019-04-16T01:06:40.686Z,7.45
2019-04-16T01:09:10.384Z,7.83
2019-04-16T01:11:39.910Z,5.35
2019-04-16T01:14:09.591Z,6.85
2019-04-16T01:16:39.294Z,6.30
2019-04-16T01:19:10.039Z,6.87
2019-04-16T01:21:59.863Z,6.60
2019-04-16T01:24:32.486Z,6.22
2019-04-16T01:27:02.077Z,5.67
2019-04-16T01:29:33.857Z,7.40
2019-04-16T01:32:09.844Z,6.25
2019-04-16T01:34:43.430Z,6.40
2019-04-16T01:37:25.490Z,5.65
2019-04-16T01:39:54.767Z,6.65
2019-04-16T01:42:24.291Z,5.85
2019-04-16T01:44:53.897Z,6.62
2019-04-16T01:47:23.478Z,6.25
2019-04-16T01:49:53.029Z,6.80
2019-04-16T01:52:22.643Z,5.53
2019-04-16T01:54:54.884Z,6.80
2019-04-16T01:57:24.507Z,6.10
2019-04-16T01:59:54.267Z,6.10
2019-04-16T02:02:23.909Z,6.80
2019-04-16T02:04:53.442Z,6.00
2019-04-16T02:07:27.718Z,6.37
2019-04-16T02:09:54.625Z,5.25
2019-04-16T02:12:24.239Z,5.10
2019-04-16T02:14:53.800Z,6.20
2019-04-16T02:17:26.688Z,5.17
2019-04-16T02:19:55.000Z,5.50
2019-04-16T02:22:24.995Z,5.17
2019-04-16T02:24:54.546Z,5.83
2019-04-16T02:27:26.310Z,6.42
2019-04-16T02:29:58.530Z,6.47
2019-04-16T02:32:27.077Z,6.08
2019-04-16T02:34:56.669Z,6.92
2019-04-16T02:37:26.538Z,6.15
2019-04-16T02:39:56.305Z,6.80
2019-04-16T02:42:30.718Z,6.75
2019-04-16T02:44:57.209Z,5.70
2019-04-16T02:47:26.880Z,5.95
2019-04-16T02:49:57.944Z,6.35
2019-04-16T02:52:30.174Z,6.33
2019-04-16T02:55:08.105Z,7.05
2019-04-16T02:57:34.224Z,6.67
2019-04-16T03:00:05.557Z,6.97
2019-04-16T03:02:35.046Z,5.20
2019-04-16T03:05:13.557Z,6.55
2019-04-16T03:07:43.138Z,5.95
2019-04-16T03:10:13.861Z,5.70
2019-04-16T03:12:44.223Z,5.65
2019-04-16T03:15:15.584Z,6.58
2019-04-16T03:17:46.246Z,6.58
2019-04-16T03:20:20.750Z,7.30
2019-04-16T03:22:51.733Z,7.05
2019-04-16T03:25:21.318Z,6.28
2019-04-16T03:27:54.428Z,6.00
2019-04-16T03:30:23.803Z,6.00
2019-04-16T03:32:53.369Z,6.20
2019-04-16T03:35:26.571Z,5.87
2019-04-16T03:37:56.978Z,6.20
2019-04-16T03:40:27.275Z,5.90
2019-04-16T03:42:59.314Z,6.60
2019-04-16T03:45:28.618Z,6.55
2019-04-16T03:47:58.206Z,7.35
2019-04-16T03:50:31.059Z,6.22
2019-04-16T03:52:59.006Z,5.92
2019-04-16T03:55:28.508Z,6.53
2019-04-16T03:57:58.320Z,6.50
2019-04-16T04:00:28.068Z,6.70
2019-04-16T04:03:01.635Z,5.62
2019-04-16T04:05:31.181Z,5.87
2019-04-16T04:08:00.767Z,5.72
2019-04-16T04:10:34.246Z,6.25
2019-04-16T04:13:04.987Z,6.33
2019-04-16T04:15:34.799Z,7.03
2019-04-16T04:18:04.393Z,6.60
2019-04-16T04:20:34.033Z,6.95
2019-04-16T04:23:03.614Z,5.60
2019-04-16T04:25:35.996Z,6.37
2019-04-16T04:28:05.821Z,6.10
2019-04-16T04:30:35.517Z,5.85
2019-04-16T04:33:08.650Z,5.87
2019-04-16T04:35:36.871Z,6.10
2019-04-16T04:38:06.458Z,7.22
2019-04-16T04:40:44.268Z,5.33
2019-04-16T04:43:07.740Z,6.87
2019-04-16T04:45:40.810Z,5.60
2019-04-16T04:48:11.677Z,5.47
2019-04-16T04:50:40.765Z,6.35
2019-04-16T04:53:10.350Z,7.45
2019-04-16T04:55:39.928Z,5.20
2019-04-16T04:58:09.930Z,6.50
2019-04-16T05:00:40.546Z,6.20
2019-04-16T05:03:15.864Z,6.15
2019-04-16T05:05:53.311Z,6.53
2019-04-16T05:08:22.590Z,4.90
2019-04-16T05:10:58.928Z,5.58
2019-04-16T05:13:24.910Z,6.72
2019-04-16T05:15:54.783Z,6.50
2019-04-16T05:18:24.308Z,6.80
2019-04-16T05:20:53.863Z,6.50
2019-04-16T05:23:25.740Z,6.00
2019-04-16T05:25:54.820Z,6.50
2019-04-16T05:28:25.065Z,5.75
2019-04-16T05:30:54.589Z,6.10
2019-04-16T05:33:24.103Z,6.25
2019-04-16T05:35:53.727Z,6.30
2019-04-16T05:38:24.420Z,6.00
2019-04-16T05:40:54.535Z,6.65
2019-04-16T05:43:24.176Z,6.42
2019-04-16T05:45:53.794Z,6.30
2019-04-16T05:48:23.399Z,5.70
2019-04-16T05:50:53.338Z,6.45
2019-04-16T05:53:22.850Z,6.47
2019-04-16T05:55:57.496Z,6.67
2019-04-16T05:58:27.733Z,7.25
2019-04-16T06:00:58.146Z,5.85
2019-04-16T06:03:27.669Z,6.22
2019-04-16T06:05:59.338Z,5.92
2019-04-16T06:08:29.618Z,6.65
2019-04-16T06:10:59.133Z,5.70
2019-04-16T06:13:30.412Z,5.60
2019-04-16T06:15:59.747Z,5.53
2019-04-16T06:18:29.095Z,5.78
2019-04-16T06:21:07.152Z,6.40
2019-04-16T06:23:55.408Z,5.72
2019-04-16T06:26:36.511Z,5.67
2019-04-16T06:29:25.426Z,5.75
2019-04-16T06:32:00.807Z,5.92
2019-04-16T06:34:48.514Z,6.05
2019-04-16T06:37:21.495Z,6.22
2019-04-16T06:39:50.849Z,5.87
2019-04-16T06:42:26.639Z,7.28
2019-04-16T06:44:57.945Z,7.07
2019-04-16T06:47:45.562Z,6.37
2019-04-16T06:50:14.984Z,5.73
2019-04-16T06:53:05.388Z,6.30
2019-04-16T06:55:42.920Z,6.67
2019-04-16T06:58:23.123Z,6.20
2019-04-16T07:00:54.741Z,6.07
2019-04-16T07:03:44.087Z,6.50
2019-04-16T07:06:35.988Z,7.07
2019-04-16T07:09:08.056Z,5.83
2019-04-16T07:11:39.191Z,6.07
2019-04-16T07:14:11.493Z,6.87
2019-04-16T07:16:40.473Z,7.87
2019-04-16T07:19:11.478Z,7.00
2019-04-16T07:21:41.391Z,6.40
2019-04-16T07:24:13.775Z,6.53
2019-04-16T07:26:48.266Z,6.57
2019-04-16T07:29:19.873Z,7.43
2019-04-16T07:31:53.083Z,7.37
2019-04-16T07:34:36.198Z,7.13
2019-04-16T07:37:23.311Z,5.97
2019-04-16T07:40:12.410Z,6.80
2019-04-16T07:42:52.175Z,6.50
2019-04-16T07:45:21.686Z,6.33
2019-04-16T07:48:10.910Z,7.67
2019-04-16T07:50:58.032Z,6.77
2019-04-16T07:53:47.411Z,7.87
2019-04-16T07:56:20.962Z,7.07
2019-04-16T07:58:50.552Z,7.60
2019-04-16T08:01:20.052Z,7.53
2019-04-16T08:03:49.607Z,7.20
2019-04-16T08:06:19.133Z,7.27
2019-04-16T08:08:48.805Z,7.27
2019-04-16T08:11:18.373Z,7.50
2019-04-16T08:13:47.963Z,9.00
2019-04-16T08:16:17.461Z,8.73
2019-04-16T08:18:52.917Z,9.10
2019-04-16T08:21:23.015Z,8.67
2019-04-16T08:23:54.432Z,7.60
2019-04-16T08:26:23.999Z,8.57
2019-04-16T08:28:53.525Z,8.23
2019-04-16T08:31:24.672Z,7.23
2019-04-16T08:33:56.376Z,7.70
2019-04-16T08:36:25.968Z,7.57
2019-04-16T08:38:56.042Z,7.73
2019-04-16T08:41:25.815Z,8.43
2019-04-16T08:43:55.461Z,7.50
2019-04-16T08:46:28.066Z,7.83
2019-04-16T08:48:56.628Z,7.57
2019-04-16T08:51:30.728Z,8.00
2019-04-16T08:53:57.608Z,7.00
2019-04-16T08:56:27.227Z,8.07
2019-04-16T08:59:00.639Z,7.33
2019-04-16T09:01:32.420Z,8.40
2019-04-16T09:04:03.058Z,7.07
2019-04-16T09:06:32.892Z,7.73
2019-04-16T09:09:12.428Z,8.00
2019-04-16T09:11:36.294Z,8.30
2019-04-16T09:14:07.809Z,7.57
2019-04-16T09:16:57.237Z,8.37
2019-04-16T09:19:27.541Z,7.77
2019-04-16T09:21:57.134Z,8.20
2019-04-16T09:24:30.979Z,9.20
2019-04-16T09:27:03.019Z,9.83
2019-04-16T09:29:39.138Z,9.30
2019-04-16T09:32:10.993Z,8.90
2019-04-16T09:35:08.887Z,10.40
2019-04-16T09:37:47.263Z,9.37
2019-04-16T09:40:34.770Z,9.10
2019-04-16T09:43:16.749Z,10.03
2019-04-16T09:45:38.603Z,9.70
2019-04-16T09:48:08.104Z,9.87
2019-04-16T09:50:42.993Z,9.30
2019-04-16T09:53:09.024Z,9.27
2019-04-16T09:55:38.547Z,10.17
2019-04-16T09:58:13.533Z,9.87
2019-04-16T10:00:47.104Z,9.97
2019-04-16T10:03:32.915Z,9.47
2019-04-16T10:06:05.301Z,9.07
2019-04-16T10:08:34.008Z,9.80
2019-04-16T10:11:06.111Z,9.70
2019-04-16T10:13:37.289Z,9.50
2019-04-16T10:16:07.603Z,9.13
2019-04-16T10:18:37.684Z,9.53
2019-04-16T10:21:07.351Z,10.50
2019-04-16T10:23:42.540Z,9.17
2019-04-16T10:26:12.716Z,9.73
2019-04-16T10:28:43.925Z,9.97
2019-04-16T10:31:15.207Z,9.67
2019-04-16T10:33:45.361Z,8.83
2019-04-16T10:36:14.933Z,9.40
2019-04-16T10:38:46.235Z,9.20
2019-04-16T10:41:33.601Z,9.50
2019-04-16T10:44:10.232Z,9.33
2019-04-16T10:46:57.397Z,9.83
2019-04-16T10:49:28.694Z,8.93
2019-04-16T10:51:58.159Z,9.57
2019-04-16T10:54:42.340Z,9.23
2019-04-16T10:57:16.401Z,9.30
2019-04-16T10:59:50.339Z,9.40
2019-04-16T11:02:37.620Z,9.57
2019-04-16T11:05:10.248Z,9.33
2019-04-16T11:07:40.911Z,9.00
2019-04-16T11:10:11.876Z,9.03
2019-04-16T11:12:42.496Z,8.70
2019-04-16T11:15:14.331Z,9.47
2019-04-16T11:17:43.934Z,9.13
2019-04-16T11:20:13.715Z,9.77
2019-04-16T11:22:46.016Z,9.50
2019-04-16T11:25:15.807Z,9.00
2019-04-16T11:27:47.404Z,9.70
2019-04-16T11:30:33.528Z,10.27
2019-04-16T11:33:03.812Z,10.27
2019-04-16T11:35:33.713Z,9.90
2019-04-16T11:38:03.408Z,9.37
2019-04-16T11:40:33.141Z,9.90
2019-04-16T11:43:03.244Z,10.30
2019-04-16T11:45:33.298Z,9.40
2019-04-16T11:48:03.518Z,10.37
2019-04-16T11:50:36.361Z,10.60
2019-04-16T11:53:06.447Z,10.30
2019-04-16T11:55:36.258Z,9.30
2019-04-16T11:58:07.672Z,9.60
2019-04-16T12:00:47.749Z,9.10
2019-04-16T12:03:23.163Z,10.40
2019-04-16T12:06:04.416Z,9.33
2019-04-16T12:08:51.717Z,11.13
2019-04-16T12:11:22.070Z,9.53
2019-04-16T12:13:56.288Z,10.03
2019-04-16T12:16:34.704Z,10.40
2019-04-16T12:19:15.667Z,9.80
2019-04-16T12:21:50.824Z,10.07
2019-04-16T12:24:22.167Z,9.90
2019-04-16T12:27:01.159Z,9.50
2019-04-16T12:29:32.322Z,8.83
2019-04-16T12:32:11.413Z,8.93
2019-04-16T12:34:42.848Z,8.83
2019-04-16T12:37:17.335Z,8.20
2019-04-16T12:40:04.407Z,9.03
2019-04-16T12:42:42.268Z,7.23
2019-04-16T12:45:23.485Z,7.73
2019-04-16T12:47:54.824Z,8.00
2019-04-16T12:50:28.529Z,9.03
2019-04-16T12:53:00.048Z,8.20
2019-04-16T12:55:40.245Z,7.43
2019-04-16T12:58:11.677Z,9.13
2019-04-16T13:00:42.974Z,8.07
2019-04-16T13:03:16.458Z,8.63
2019-04-16T13:05:57.353Z,8.20
2019-04-16T13:08:34.098Z,8.00
2019-04-16T13:11:21.678Z,8.57
2019-04-16T13:14:09.003Z,9.03
2019-04-16T13:16:56.880Z,7.90
2019-04-16T13:19:38.369Z,8.17
2019-04-16T13:22:09.740Z,9.10
2019-04-16T13:24:41.053Z,9.00
2019-04-16T13:27:15.497Z,9.77
2019-04-16T13:29:46.658Z,8.80
2019-04-16T13:32:16.318Z,8.50
2019-04-16T13:34:45.939Z,8.70
2019-04-16T13:37:15.780Z,9.10
2019-04-16T13:39:45.155Z,9.03
2019-04-16T13:42:14.807Z,7.73
2019-04-16T13:44:50.063Z,7.83
2019-04-16T13:47:19.723Z,7.60
2019-04-16T13:49:51.514Z,9.30
2019-04-16T13:52:25.119Z,9.07
2019-04-16T13:54:52.252Z,8.40
2019-04-16T13:57:26.265Z,8.63
2019-04-16T14:00:13.896Z,8.50
2019-04-16T14:02:52.023Z,8.63
2019-04-16T14:05:22.084Z,8.47
2019-04-16T14:07:51.671Z,9.03
2019-04-16T14:10:21.822Z,9.90
2019-04-16T14:12:51.734Z,10.30
2019-04-16T14:15:31.892Z,10.23
2019-04-16T14:17:59.701Z,10.43
2019-04-16T14:20:28.744Z,10.17
2019-04-16T14:22:58.416Z,9.53
2019-04-16T14:25:28.393Z,8.40
2019-04-16T14:28:01.953Z,10.47
2019-04-16T14:30:34.081Z,10.70
2019-04-16T14:33:06.496Z,10.40
2019-04-16T14:35:35.774Z,11.80
2019-04-16T14:38:05.436Z,9.93
2019-04-16T14:40:35.027Z,9.67
2019-04-16T14:43:04.625Z,10.93
2019-04-16T14:45:58.187Z,11.07
2019-04-16T14:48:19.179Z,9.90
2019-04-16T14:50:48.771Z,11.20
2019-04-16T14:53:20.050Z,11.00
2019-04-16T14:56:00.043Z,12.13
2019-04-16T14:58:31.322Z,12.63
2019-04-16T15:01:06.190Z,12.67
2019-04-16T15:03:43.110Z,11.20
2019-04-16T15:06:11.012Z,11.23
2019-04-16T15:08:42.360Z,11.23
2019-04-16T15:11:13.621Z,11.90
2019-04-16T15:14:01.154Z,11.00
2019-04-16T15:16:40.157Z,11.90
2019-04-16T15:19:27.687Z,10.27
2019-04-16T15:21:59.944Z,11.87
2019-04-16T15:24:45.777Z,11.43
2019-04-16T15:27:19.864Z,13.00
2019-04-16T15:29:52.633Z,12.70
2019-04-16T15:32:24.277Z,13.80
2019-04-16T15:34:57.069Z,12.50
2019-04-16T15:37:45.270Z,14.20
2019-04-16T15:40:18.247Z,12.57
2019-04-16T15:42:55.168Z,12.97
2019-04-16T15:45:29.118Z,12.23
2019-04-16T15:48:11.426Z,13.60
2019-04-16T15:50:58.682Z,13.20
2019-04-16T15:53:30.002Z,13.70
2019-04-16T15:56:07.833Z,12.90
2019-04-16T15:58:48.087Z,12.70
2019-04-16T16:01:21.949Z,13.37
2019-04-16T16:04:11.092Z,14.90
2019-04-16T16:06:51.772Z,13.60
2019-04-16T16:09:20.105Z,14.23
2019-04-16T16:11:57.384Z,12.97
2019-04-16T16:14:33.025Z,12.40
2019-04-16T16:16:58.476Z,14.40
2019-04-16T16:19:29.093Z,13.53
2019-04-16T16:21:58.636Z,13.70
2019-04-16T16:24:28.301Z,12.70
2019-04-16T16:26:59.883Z,12.90
2019-04-16T16:29:29.546Z,12.83
2019-04-16T16:31:59.177Z,12.73
2019-04-16T16:34:29.104Z,12.47
2019-04-16T16:36:59.023Z,13.13
2019-04-16T16:39:28.634Z,13.13
2019-04-16T16:41:58.230Z,12.93
2019-04-16T16:44:27.897Z,12.73
2019-04-16T16:47:11.519Z,14.83
2019-04-16T16:49:51.146Z,13.30
2019-04-16T16:52:31.372Z,13.17
2019-04-16T16:55:02.690Z,13.80
2019-04-16T16:57:34.015Z,13.33
2019-04-16T17:00:09.376Z,14.60
2019-04-16T17:02:40.630Z,14.57
2019-04-16T17:05:11.885Z,14.93
2019-04-16T17:07:41.735Z,13.27
2019-04-16T17:10:11.572Z,12.50
2019-04-16T17:12:41.225Z,13.60
2019-04-16T17:15:10.839Z,13.10
2019-04-16T17:17:40.463Z,13.00
2019-04-16T17:20:11.379Z,13.10
2019-04-16T17:22:41.071Z,13.20
2019-04-16T17:25:12.185Z,14.50
2019-04-16T17:27:51.080Z,12.90
2019-04-16T17:30:14.585Z,12.83
2019-04-16T17:32:44.151Z,12.07
2019-04-16T17:35:15.577Z,13.97
2019-04-16T17:37:45.205Z,12.97
2019-04-16T17:40:31.834Z,12.50
2019-04-16T17:43:04.552Z,12.13
2019-04-16T17:45:52.816Z,13.60
2019-04-16T17:48:26.787Z,11.63
2019-04-16T17:50:58.167Z,12.10
2019-04-16T17:53:32.305Z,12.47
2019-04-16T17:56:07.827Z,12.67
2019-04-16T17:58:39.085Z,11.40
2019-04-16T18:01:14.440Z,11.73
2019-04-16T18:03:54.818Z,10.90
2019-04-16T18:06:29.208Z,11.43
2019-04-16T18:09:12.129Z,11.47
2019-04-16T18:11:53.599Z,12.17
2019-04-16T18:14:24.848Z,11.50
2019-04-16T18:16:56.048Z,11.83
2019-04-16T18:19:41.360Z,11.17
2019-04-16T18:22:15.593Z,10.87
2019-04-16T18:24:54.243Z,10.70
2019-04-16T18:27:28.504Z,11.63
2019-04-16T18:29:58.534Z,11.73
2019-04-16T18:32:32.792Z,11.33
2019-04-16T18:35:10.372Z,11.13
2019-04-16T18:37:41.763Z,11.00
2019-04-16T18:40:13.077Z,10.30
2019-04-16T18:43:03.918Z,10.83
2019-04-16T18:45:52.288Z,10.53
2019-04-16T18:48:23.863Z,11.60
2019-04-16T18:50:59.907Z,11.33
2019-04-16T18:53:27.479Z,12.00
2019-04-16T18:55:57.443Z,11.70
2019-04-16T18:58:27.012Z,11.70
2019-04-16T19:01:01.140Z,10.70
2019-04-16T19:03:31.169Z,10.90
2019-04-16T19:06:01.046Z,11.20
2019-04-16T19:08:41.521Z,11.30
2019-04-16T19:11:03.996Z,10.97
2019-04-16T19:13:33.862Z,10.03
2019-04-16T19:16:03.750Z,10.20
2019-04-16T19:18:36.251Z,9.97
2019-04-16T19:21:06.087Z,10.20
2019-04-16T19:23:35.903Z,11.30
2019-04-16T19:26:09.444Z,11.27
2019-04-16T19:28:39.556Z,11.33
2019-04-16T19:31:10.351Z,10.83
2019-04-16T19:33:40.043Z,10.47
2019-04-16T19:36:09.709Z,11.20
2019-04-16T19:38:40.500Z,11.20
2019-04-16T19:41:12.538Z,8.70
2019-04-16T19:43:42.199Z,9.87
2019-04-16T19:46:15.291Z,11.23
2019-04-16T19:48:43.351Z,10.33
2019-04-16T19:51:13.400Z,10.80
2019-04-16T19:53:44.585Z,10.73
2019-04-16T19:56:18.494Z,10.50
2019-04-16T19:58:48.163Z,9.07
2019-04-16T20:01:18.162Z,10.30
2019-04-16T20:03:47.940Z,11.10
2019-04-16T20:06:17.841Z,10.20
2019-04-16T20:08:47.671Z,11.50
2019-04-16T20:11:20.785Z,10.70
2019-04-16T20:13:49.423Z,10.60
2019-04-16T20:16:19.136Z,10.90
2019-04-16T20:18:51.370Z,10.00
2019-04-16T20:21:20.914Z,11.10
2019-04-16T20:23:50.731Z,10.73
2019-04-16T20:26:21.026Z,11.00
2019-04-16T20:28:53.066Z,10.83
2019-04-16T20:31:22.672Z,11.07
2019-04-16T20:33:52.326Z,10.27
2019-04-16T20:36:22.713Z,11.60
2019-04-16T20:38:53.634Z,10.57
2019-04-16T20:41:24.608Z,10.07
2019-04-16T20:43:54.291Z,11.50
2019-04-16T20:46:23.989Z,10.40
2019-04-16T20:49:08.156Z,10.40
2019-04-16T20:51:27.335Z,10.20
2019-04-16T20:53:57.487Z,10.63
2019-04-16T20:56:28.394Z,11.20
2019-04-16T20:59:03.487Z,10.60
2019-04-16T21:01:37.182Z,12.10
2019-04-16T21:04:06.314Z,10.67
2019-04-16T21:06:40.739Z,10.40
2019-04-16T21:09:08.942Z,10.77
2019-04-16T21:11:40.993Z,11.00
2019-04-16T21:14:09.921Z,11.07
2019-04-16T21:16:39.729Z,11.80
2019-04-16T21:19:22.151Z,10.70
2019-04-16T21:21:40.686Z,11.67
2019-04-16T21:24:13.579Z,9.33
2019-04-16T21:26:42.107Z,9.90
2019-04-16T21:29:21.516Z,9.70
2019-04-16T21:31:52.250Z,9.83
2019-04-16T21:34:29.786Z,8.70
2019-04-16T21:37:02.430Z,9.80
2019-04-16T21:39:33.712Z,9.90
2019-04-16T21:42:03.731Z,10.20
2019-04-16T21:44:33.509Z,10.17
2019-04-16T21:47:03.285Z,9.83
2019-04-16T21:49:38.979Z,9.30
2019-04-16T21:52:07.864Z,10.33
2019-04-16T21:54:39.684Z,10.77
2019-04-16T21:57:13.255Z,9.70
2019-04-16T21:59:40.775Z,10.20
2019-04-16T22:02:13.937Z,8.97
2019-04-16T22:04:45.422Z,9.83
2019-04-16T22:07:14.899Z,9.67
2019-04-16T22:09:45.037Z,9.23
2019-04-16T22:12:15.529Z,9.50
2019-04-16T22:14:46.196Z,9.50
2019-04-16T22:17:15.922Z,9.53
2019-04-16T22:19:53.927Z,8.93
2019-04-16T22:22:16.943Z,9.23
2019-04-16T22:24:51.796Z,9.40
2019-04-16T22:27:22.101Z,9.10
2019-04-16T22:29:51.696Z,8.47
2019-04-16T22:32:21.333Z,9.57
2019-04-16T22:34:50.860Z,9.37
2019-04-16T22:37:20.533Z,8.53
2019-04-16T22:39:51.175Z,9.50
2019-04-16T22:42:26.462Z,8.90
2019-04-16T22:45:00.800Z,9.03
2019-04-16T22:47:34.661Z,8.80
2019-04-16T22:50:16.053Z,10.50
2019-04-16T22:52:37.275Z,10.10
2019-04-16T22:55:09.083Z,8.20
2019-04-16T22:57:38.623Z,8.90
2019-04-16T23:00:12.918Z,8.77
2019-04-16T23:02:41.386Z,9.53
2019-04-16T23:05:11.454Z,9.80
2019-04-16T23:07:40.985Z,9.40
2019-04-16T23:10:10.643Z,9.43
2019-04-16T23:12:40.214Z,10.07
2019-04-16T23:15:11.528Z,9.87
2019-04-16T23:17:42.795Z,10.40
2019-04-16T23:20:28.169Z,10.13
2019-04-16T23:22:46.518Z,10.87
2019-04-16T23:25:17.745Z,11.60
2019-04-16T23:27:47.461Z,11.00
2019-04-16T23:30:18.494Z,11.77
2019-04-16T23:32:48.554Z,10.70
2019-04-16T23:35:18.329Z,10.83
2019-04-16T23:37:47.958Z,10.70
2019-04-16T23:40:17.592Z,10.00
2019-04-16T23:42:54.855Z,10.03
2019-04-16T23:45:32.201Z,10.23
2019-04-16T23:48:06.322Z,10.47
2019-04-16T23:50:44.975Z,10.67
2019-04-16T23:53:15.954Z,11.27
2019-04-16T23:55:52.626Z,10.47
2019-04-16T23:58:28.149Z,11.17
